Time;durP1;ratioP1;P1;durP2;ratioP2;P2;SDS_P1;SDS_P2;PMS_P1;PMS_P2;Temp;Humidity;BMP_temperature;BMP_pressure;BME280_temperature;BME280_humidity;BME280_pressure;Samples;Min_cycle;Max_cycle;Signal;HPM_P1;HPM_P2
2023/08/24 00:01:17;;;;;;;7.18;6.57;;;23.00;99.90;;;;;;5093934;28;20256;-79
2023/08/24 00:03:47;;;;;;;7.73;7.13;;;23.00;99.90;;;;;;5093773;28;20608;-78
2023/08/24 00:06:13;;;;;;;7.75;6.95;;;22.90;99.90;;;;;;5094010;28;20210;-78
2023/08/24 00:08:39;;;;;;;8.43;7.40;;;22.90;99.90;;;;;;5098128;28;20188;-80
2023/08/24 00:11:05;;;;;;;7.50;6.80;;;22.90;99.90;;;;;;5108222;28;20254;-80
2023/08/24 00:13:31;;;;;;;13.57;7.30;;;22.90;99.90;;;;;;5112181;28;20174;-78
2023/08/24 00:15:57;;;;;;;7.67;6.70;;;22.80;99.90;;;;;;5096588;28;20178;-77
2023/08/24 00:18:24;;;;;;;8.17;7.37;;;22.80;99.90;;;;;;5093104;28;20175;-77
2023/08/24 00:20:49;;;;;;;7.50;6.80;;;22.80;99.90;;;;;;5075092;28;20197;-79
2023/08/24 00:23:16;;;;;;;8.43;7.13;;;22.80;99.90;;;;;;5093086;28;20174;-77
2023/08/24 00:25:42;;;;;;;7.87;7.07;;;22.70;99.90;;;;;;5093096;28;20237;-78
2023/08/24 00:28:08;;;;;;;8.43;7.13;;;22.70;99.90;;;;;;5093374;28;20170;-79
2023/08/24 00:30:33;;;;;;;7.27;6.57;;;22.70;99.90;;;;;;5093167;28;20252;-76
2023/08/24 00:32:59;;;;;;;7.50;6.80;;;22.70;99.90;;;;;;5093304;28;20252;-79
2023/08/24 00:35:25;;;;;;;7.17;6.67;;;22.60;99.90;;;;;;5093730;28;20179;-78
2023/08/24 00:37:51;;;;;;;9.17;7.47;;;22.50;99.90;;;;;;5093319;28;20182;-78
2023/08/24 00:40:18;;;;;;;7.60;7.00;;;22.60;99.90;;;;;;5093397;28;20170;-77
2023/08/24 00:42:45;;;;;;;7.97;7.17;;;22.60;99.90;;;;;;5096519;28;20584;-79
2023/08/24 00:45:12;;;;;;;8.03;7.23;;;22.50;99.90;;;;;;5082509;28;20194;-79
2023/08/24 00:47:44;;;;;;;7.20;6.60;;;22.50;99.90;;;;;;5112553;28;20213;-77
2023/08/24 00:50:11;;;;;;;9.10;7.53;;;22.50;99.90;;;;;;5112977;28;20175;-79
2023/08/24 00:52:39;;;;;;;8.03;7.27;;;22.50;99.90;;;;;;5112670;28;20190;-77
2023/08/24 00:55:06;;;;;;;9.83;7.30;;;22.60;99.90;;;;;;5096993;28;20217;-78
2023/08/24 00:57:32;;;;;;;8.00;6.87;;;22.60;99.90;;;;;;5097000;28;20625;-79
2023/08/24 01:00:01;;;;;;;7.80;7.10;;;22.60;99.90;;;;;;5098133;28;20178;-79
2023/08/24 01:02:27;;;;;;;7.67;6.93;;;22.50;99.90;;;;;;5107487;28;20163;-79
2023/08/24 01:04:54;;;;;;;7.37;6.77;;;22.50;99.90;;;;;;5110632;28;20202;-77
2023/08/24 01:07:20;;;;;;;8.07;7.27;;;22.50;99.90;;;;;;5096750;28;20272;-78
2023/08/24 01:09:47;;;;;;;8.77;7.30;;;22.50;99.90;;;;;;5096484;28;20564;-77
2023/08/24 01:12:55;;;;;;;7.70;7.00;;;22.50;99.90;;;;;;5078119;28;20179;-77
2023/08/24 01:15:24;;;;;;;8.43;7.63;;;22.50;99.90;;;;;;5095913;28;20182;-77
2023/08/24 01:17:52;;;;;;;7.83;7.13;;;22.50;99.90;;;;;;5094852;28;20190;-77
2023/08/24 01:20:18;;;;;;;9.00;7.10;;;22.50;99.90;;;;;;5098231;28;20629;-78
2023/08/24 01:23:03;;;;;;;7.63;6.93;;;22.60;99.90;;;;;;5096678;28;20646;-78
2023/08/24 01:25:35;;;;;;;7.77;7.10;;;22.60;99.90;;;;;;5096151;28;20245;-78
2023/08/24 01:28:01;;;;;;;8.10;7.40;;;22.60;99.90;;;;;;5095970;28;20170;-79
2023/08/24 01:30:28;;;;;;;8.73;7.97;;;22.60;99.90;;;;;;5077657;28;20272;-79
2023/08/24 01:32:54;;;;;;;11.87;7.80;;;22.60;99.90;;;;;;5077692;28;20182;-78
2023/08/24 01:35:20;;;;;;;7.83;7.03;;;22.60;99.90;;;;;;5096089;28;20233;-77
2023/08/24 01:37:46;;;;;;;7.70;7.00;;;22.60;99.90;;;;;;5095727;28;20186;-78
2023/08/24 01:40:26;;;;;;;7.97;7.20;;;22.60;99.90;;;;;;5095044;28;20182;-79
2023/08/24 01:42:57;;;;;;;7.93;7.10;;;22.60;99.90;;;;;;5100659;28;20250;-78
2023/08/24 01:45:29;;;;;;;9.23;8.43;;;22.60;99.90;;;;;;5084986;28;20185;-81
2023/08/24 01:47:55;;;;;;;7.93;7.30;;;22.70;99.90;;;;;;5096274;28;20641;-79
2023/08/24 01:50:22;;;;;;;8.93;7.17;;;22.70;99.90;;;;;;5101045;28;20196;-77
2023/08/24 01:52:48;;;;;;;8.83;7.50;;;22.70;99.90;;;;;;5099904;28;20217;-79
2023/08/24 01:55:17;;;;;;;8.23;7.53;;;22.60;99.90;;;;;;5096004;28;20198;-78
2023/08/24 01:57:43;;;;;;;9.30;7.33;;;22.60;99.90;;;;;;5095726;28;20585;-79
2023/08/24 02:00:09;;;;;;;8.30;7.50;;;22.60;99.90;;;;;;5094513;28;20178;-79
2023/08/24 02:02:35;;;;;;;7.93;7.13;;;22.60;99.90;;;;;;5096497;28;20202;-78
2023/08/24 02:05:02;;;;;;;7.77;7.07;;;22.70;99.90;;;;;;5106228;28;20182;-79
2023/08/24 02:07:28;;;;;;;7.87;6.90;;;22.60;99.90;;;;;;5096810;28;20289;-78
2023/08/24 02:09:54;;;;;;;7.77;7.13;;;22.60;99.90;;;;;;5098922;28;20197;-78
2023/08/24 02:12:19;;;;;;;8.47;7.27;;;22.50;99.90;;;;;;5095260;28;20201;-78
2023/08/24 02:14:45;;;;;;;8.20;7.50;;;22.50;99.90;;;;;;5094248;28;20181;-78
2023/08/24 02:17:11;;;;;;;8.90;7.97;;;22.50;99.90;;;;;;5095889;28;20703;-77
2023/08/24 02:19:37;;;;;;;8.37;7.17;;;22.60;99.90;;;;;;5095192;28;20179;-78
2023/08/24 02:22:03;;;;;;;7.00;6.50;;;22.60;99.90;;;;;;5095018;28;20268;-79
2023/08/24 02:24:29;;;;;;;8.13;7.23;;;22.70;99.90;;;;;;5095763;28;20167;-78
2023/08/24 02:26:54;;;;;;;8.23;7.00;;;22.60;99.90;;;;;;5095028;28;20621;-78
2023/08/24 02:29:20;;;;;;;8.17;7.03;;;22.60;99.90;;;;;;5107622;28;20179;-79
2023/08/24 02:31:46;;;;;;;7.60;6.90;;;22.60;99.90;;;;;;5105709;28;20187;-78
2023/08/24 02:34:12;;;;;;;8.23;7.30;;;22.50;99.90;;;;;;5114107;28;20178;-79
2023/08/24 02:36:37;;;;;;;7.87;7.17;;;22.50;99.90;;;;;;5099037;28;20197;-78
2023/08/24 02:39:05;;;;;;;8.17;7.40;;;22.40;99.90;;;;;;5097910;28;20175;-79
2023/08/24 02:41:30;;;;;;;8.80;7.90;;;22.40;99.90;;;;;;5115126;28;20162;-78
2023/08/24 02:43:56;;;;;;;8.60;7.80;;;22.40;99.90;;;;;;5101754;28;20663;-77
2023/08/24 02:46:22;;;;;;;8.00;7.20;;;22.40;99.90;;;;;;5097399;28;20325;-78
2023/08/24 02:48:48;;;;;;;7.97;7.17;;;22.40;99.90;;;;;;5094586;28;20179;-80
2023/08/24 02:51:13;;;;;;;9.17;7.53;;;22.40;99.90;;;;;;5094431;28;20182;-77
2023/08/24 02:53:41;;;;;;;7.60;6.70;;;22.20;99.90;;;;;;5094331;28;20186;-77
2023/08/24 02:56:06;;;;;;;8.13;7.53;;;22.20;99.90;;;;;;5094194;28;20271;-78
2023/08/24 02:58:32;;;;;;;8.50;7.60;;;22.10;99.90;;;;;;5094273;28;20217;-78
2023/08/24 03:00:58;;;;;;;7.75;7.05;;;22.10;99.90;;;;;;5094428;28;20272;-78
2023/08/24 03:03:25;;;;;;;8.00;7.20;;;22.20;99.90;;;;;;5092266;28;20612;-81
2023/08/24 03:05:59;;;;;;;7.70;6.70;;;22.10;99.90;;;;;;5093805;28;20344;-78
2023/08/24 03:08:25;;;;;;;8.07;7.07;;;22.10;99.90;;;;;;5094120;28;20198;-77
2023/08/24 03:10:51;;;;;;;8.17;7.37;;;22.00;99.90;;;;;;5094030;28;20174;-79
2023/08/24 03:13:17;;;;;;;8.37;7.60;;;22.00;99.90;;;;;;5093714;28;20178;-79
2023/08/24 03:15:43;;;;;;;9.20;7.83;;;22.00;99.90;;;;;;5095339;28;20189;-80
2023/08/24 03:18:14;;;;;;;8.87;7.97;;;22.00;99.90;;;;;;5103341;28;20549;-78
2023/08/24 03:20:40;;;;;;;7.73;7.07;;;22.00;99.90;;;;;;5094776;28;20175;-78
2023/08/24 03:23:06;;;;;;;8.47;7.77;;;21.90;99.90;;;;;;5093577;28;20389;-78
2023/08/24 03:25:37;;;;;;;8.27;7.33;;;21.90;99.90;;;;;;5093819;28;20537;-77
2023/08/24 03:28:03;;;;;;;9.93;8.00;;;21.90;99.90;;;;;;5093746;28;20571;-78
2023/08/24 03:30:29;;;;;;;8.83;7.80;;;21.90;99.90;;;;;;5093738;28;20705;-78
2023/08/24 03:32:55;;;;;;;8.30;7.43;;;21.90;99.90;;;;;;5093688;28;20178;-78
2023/08/24 03:35:21;;;;;;;8.30;7.47;;;21.90;99.90;;;;;;5094972;28;20694;-78
2023/08/24 03:37:47;;;;;;;8.77;8.07;;;21.90;99.90;;;;;;5095991;28;20190;-79
2023/08/24 03:40:13;;;;;;;8.43;7.53;;;21.90;99.90;;;;;;5093648;28;20633;-80
2023/08/24 03:42:39;;;;;;;8.00;7.30;;;21.90;99.90;;;;;;5093536;28;20175;-79
2023/08/24 03:45:06;;;;;;;8.80;8.00;;;21.90;99.90;;;;;;5093957;28;20189;-77
2023/08/24 03:47:32;;;;;;;8.63;7.60;;;21.90;99.90;;;;;;5093814;28;20218;-77
2023/08/24 03:49:57;;;;;;;7.97;7.27;;;21.90;99.90;;;;;;5094053;28;20537;-81
2023/08/24 03:52:23;;;;;;;8.97;7.77;;;22.00;99.90;;;;;;5095453;28;20183;-79
2023/08/24 03:54:49;;;;;;;8.70;7.57;;;22.00;99.90;;;;;;5108808;28;20216;-82
2023/08/24 03:57:15;;;;;;;9.48;7.53;;;21.90;99.90;;;;;;5109702;28;20696;-78
2023/08/24 03:59:41;;;;;;;8.33;7.50;;;21.90;99.90;;;;;;5095433;28;20304;-81
2023/08/24 04:02:07;;;;;;;8.03;7.33;;;21.90;99.90;;;;;;5093135;28;20202;-78
2023/08/24 04:04:33;;;;;;;8.77;7.87;;;21.90;99.90;;;;;;5094014;28;20214;-77
2023/08/24 04:07:00;;;;;;;8.63;7.80;;;21.80;99.90;;;;;;5099597;28;20274;-77
2023/08/24 04:09:26;;;;;;;8.10;7.40;;;21.80;99.90;;;;;;5099210;28;20186;-78
2023/08/24 04:11:51;;;;;;;8.60;7.60;;;21.80;99.90;;;;;;5093442;28;20186;-77
2023/08/24 04:14:17;;;;;;;9.60;8.17;;;21.80;99.90;;;;;;5093662;28;20182;-78
2023/08/24 04:16:43;;;;;;;8.43;7.63;;;21.80;99.90;;;;;;5097698;28;20185;-77
2023/08/24 04:19:08;;;;;;;11.17;8.37;;;21.70;99.90;;;;;;5111131;28;20209;-79
2023/08/24 04:21:34;;;;;;;14.90;12.87;;;21.80;99.90;;;;;;5115780;28;20217;-78
2023/08/24 04:24:00;;;;;;;9.57;8.67;;;21.90;99.90;;;;;;5117826;28;20212;-77
2023/08/24 04:26:26;;;;;;;8.70;7.80;;;22.00;99.90;;;;;;5117794;28;20219;-78
2023/08/24 04:28:52;;;;;;;10.57;8.70;;;21.90;99.90;;;;;;5120297;28;20224;-78
2023/08/24 04:31:18;;;;;;;8.90;8.00;;;22.00;99.90;;;;;;5126517;28;20192;-80
2023/08/24 04:33:43;;;;;;;8.10;7.40;;;22.00;99.90;;;;;;5118505;28;20653;-78
2023/08/24 04:36:09;;;;;;;9.53;7.87;;;21.90;99.90;;;;;;5117729;28;20182;-78
2023/08/24 04:38:35;;;;;;;8.57;7.63;;;21.90;99.90;;;;;;5117800;28;20178;-77
2023/08/24 04:41:01;;;;;;;9.23;8.33;;;21.80;99.90;;;;;;5120266;28;20234;-77
2023/08/24 04:43:27;;;;;;;7.97;7.20;;;21.90;99.90;;;;;;5122391;28;20178;-79
2023/08/24 04:45:54;;;;;;;10.50;7.37;;;21.90;99.90;;;;;;5121624;28;20209;-77
2023/08/24 04:48:24;;;;;;;8.20;7.50;;;21.90;99.90;;;;;;5117283;28;20284;-77
2023/08/24 04:50:50;;;;;;;11.87;7.97;;;21.90;99.90;;;;;;5117394;28;20228;-78
2023/08/24 04:53:18;;;;;;;8.30;7.43;;;21.90;99.90;;;;;;5117119;28;20259;-78
2023/08/24 04:55:44;;;;;;;8.13;7.43;;;21.90;99.90;;;;;;5117147;28;20181;-79
2023/08/24 04:58:11;;;;;;;8.60;7.87;;;21.90;99.90;;;;;;5117300;28;20193;-79
2023/08/24 05:00:38;;;;;;;8.37;7.60;;;22.00;99.90;;;;;;5117449;28;20170;-77
2023/08/24 05:03:08;;;;;;;9.27;7.37;;;22.00;99.90;;;;;;5116902;28;20186;-77
2023/08/24 05:05:35;;;;;;;8.37;7.57;;;22.00;99.90;;;;;;5116673;28;20201;-78
2023/08/24 05:08:03;;;;;;;8.50;7.70;;;22.00;99.90;;;;;;5116791;28;20189;-78
2023/08/24 05:10:33;;;;;;;7.63;6.93;;;22.00;99.90;;;;;;5116751;28;20182;-78
2023/08/24 05:12:59;;;;;;;8.43;7.50;;;22.00;99.90;;;;;;5116798;28;20178;-79
2023/08/24 05:15:26;;;;;;;8.80;7.00;;;22.10;99.90;;;;;;5117106;28;20169;-79
2023/08/24 05:17:59;;;;;;;9.73;7.03;;;22.10;99.90;;;;;;5117308;28;20184;-79
2023/08/24 05:20:25;;;;;;;8.00;7.20;;;22.00;99.90;;;;;;5117710;28;20158;-79
2023/08/24 05:22:51;;;;;;;8.40;7.50;;;22.00;99.90;;;;;;5095652;28;20303;-78
2023/08/24 05:25:17;;;;;;;9.27;8.17;;;22.00;99.90;;;;;;5096265;28;20637;-80
2023/08/24 05:27:43;;;;;;;8.53;7.10;;;22.00;99.90;;;;;;5095639;28;20301;-79
2023/08/24 05:30:10;;;;;;;8.03;7.33;;;22.10;99.90;;;;;;5097269;28;20684;-80
2023/08/24 05:32:38;;;;;;;8.43;7.60;;;22.20;99.90;;;;;;5102903;28;20243;-79
2023/08/24 05:35:05;;;;;;;8.67;7.60;;;22.20;99.90;;;;;;5100539;28;20179;-79
2023/08/24 05:37:31;;;;;;;10.43;7.73;;;22.30;99.90;;;;;;5096806;28;20178;-80
2023/08/24 05:39:57;;;;;;;8.60;7.37;;;22.30;99.90;;;;;;5096766;28;20178;-81
2023/08/24 05:42:23;;;;;;;8.70;7.60;;;22.40;99.90;;;;;;5096852;28;20669;-79
2023/08/24 05:44:49;;;;;;;9.07;7.77;;;22.50;99.90;;;;;;5104548;28;20187;-79
2023/08/24 05:47:15;;;;;;;9.33;7.30;;;22.60;99.90;;;;;;5118471;28;20214;-80
2023/08/24 05:49:41;;;;;;;10.23;8.10;;;22.70;99.90;;;;;;5106085;28;20170;-78
2023/08/24 05:52:07;;;;;;;8.13;7.30;;;22.70;99.90;;;;;;5096672;28;20183;-79
2023/08/24 05:54:33;;;;;;;8.10;7.23;;;22.80;99.90;;;;;;5096299;28;20537;-79
2023/08/24 05:57:00;;;;;;;8.37;7.47;;;22.80;99.90;;;;;;5106020;28;20514;-81
2023/08/24 05:59:27;;;;;;;8.23;7.17;;;22.90;99.90;;;;;;5106488;28;20190;-80
2023/08/24 06:01:53;;;;;;;8.97;7.60;;;22.90;99.90;;;;;;5097198;28;20182;-81
2023/08/24 06:04:18;;;;;;;9.37;7.63;;;22.90;99.90;;;;;;5097206;28;20237;-83
2023/08/24 06:06:45;;;;;;;8.17;7.17;;;23.00;99.90;;;;;;5106763;28;20198;-79
2023/08/24 06:09:11;;;;;;;9.57;7.67;;;23.00;99.90;;;;;;5097234;28;20181;-79
2023/08/24 06:11:37;;;;;;;7.95;7.18;;;23.00;99.90;;;;;;5095361;28;20564;-82
2023/08/24 06:14:04;;;;;;;11.60;7.55;;;23.10;99.90;;;;;;5096379;28;20301;-80
2023/08/24 06:16:29;;;;;;;7.93;6.73;;;23.20;99.90;;;;;;5097410;28;20213;-80
2023/08/24 06:18:55;;;;;;;13.23;7.10;;;23.20;99.90;;;;;;5096243;28;20182;-79
2023/08/24 06:21:21;;;;;;;8.60;7.22;;;23.30;99.90;;;;;;5100662;28;20720;-80
2023/08/24 06:23:47;;;;;;;8.43;7.63;;;23.40;99.90;;;;;;5115948;28;20196;-80
2023/08/24 06:26:14;;;;;;;8.05;6.65;;;23.50;99.90;;;;;;5119669;28;20202;-79
2023/08/24 06:28:41;;;;;;;10.10;6.90;;;23.50;99.90;;;;;;5116870;28;20170;-80
2023/08/24 06:31:10;;;;;;;7.55;6.75;;;23.50;99.90;;;;;;5116196;28;20189;-81
2023/08/24 06:33:36;;;;;;;11.20;7.30;;;23.60;99.90;;;;;;5117344;28;20174;-80
2023/08/24 06:36:05;;;;;;;9.30;7.13;;;23.60;99.90;;;;;;5116745;28;20249;-81
2023/08/24 06:38:31;;;;;;;7.72;7.03;;;23.60;99.90;;;;;;5097033;28;20622;-80
2023/08/24 06:40:59;;;;;;;9.93;7.32;;;23.70;99.90;;;;;;5116079;28;20267;-80
2023/08/24 06:43:26;;;;;;;6.93;6.27;;;23.80;99.90;;;;;;5098586;28;20192;-79
2023/08/24 06:45:52;;;;;;;7.63;7.00;;;24.00;99.90;;;;;;5116492;28;20182;-80
2023/08/24 06:48:18;;;;;;;8.80;6.60;;;24.10;99.90;;;;;;5120226;28;20235;-81
2023/08/24 06:50:44;;;;;;;9.02;7.00;;;24.10;99.90;;;;;;5121278;28;20181;-80
2023/08/24 06:53:10;;;;;;;8.82;7.03;;;24.20;99.90;;;;;;5116367;28;20193;-81
2023/08/24 06:55:37;;;;;;;8.95;6.68;;;24.40;99.90;;;;;;5107666;28;20181;-80
2023/08/24 06:58:06;;;;;;;7.15;6.43;;;24.50;99.90;;;;;;5115875;28;20296;-79
2023/08/24 07:00:33;;;;;;;8.02;6.63;;;24.60;99.90;;;;;;5115450;28;20174;-80
2023/08/24 07:02:59;;;;;;;6.82;6.07;;;24.70;99.90;;;;;;5115159;28;20181;-79
2023/08/24 07:05:25;;;;;;;9.43;6.63;;;24.80;99.90;;;;;;5114928;28;20312;-81
2023/08/24 07:07:51;;;;;;;8.80;7.10;;;24.90;99.90;;;;;;5113958;28;20308;-79
2023/08/24 07:10:17;;;;;;;7.45;6.75;;;25.00;99.90;;;;;;5113521;28;20184;-82
2023/08/24 07:12:44;;;;;;;7.95;6.70;;;25.20;99.90;;;;;;5115241;28;20178;-82
2023/08/24 07:15:11;;;;;;;7.18;6.47;;;25.20;99.90;;;;;;5115475;28;20174;-82
2023/08/24 07:17:37;;;;;;;7.43;6.80;;;25.30;99.90;;;;;;5115539;28;20185;-81
2023/08/24 07:20:08;;;;;;;7.18;6.47;;;25.40;99.90;;;;;;5097327;28;20204;-81
2023/08/24 07:22:34;;;;;;;7.32;6.63;;;25.50;99.90;;;;;;5117316;28;20256;-80
2023/08/24 07:25:03;;;;;;;6.88;6.25;;;25.70;99.90;;;;;;5118253;28;20732;-79
2023/08/24 07:27:29;;;;;;;6.80;6.20;;;25.70;99.90;;;;;;5116230;28;20236;-80
2023/08/24 07:29:55;;;;;;;8.48;7.10;;;25.80;99.90;;;;;;5115057;28;20637;-80
2023/08/24 07:32:21;;;;;;;6.50;6.00;;;25.90;99.90;;;;;;5115078;28;20182;-81
2023/08/24 07:34:47;;;;;;;6.90;6.32;;;26.00;99.90;;;;;;5115170;28;20181;-79
2023/08/24 07:37:13;;;;;;;7.22;6.53;;;26.10;99.90;;;;;;5116204;28;20182;-81
2023/08/24 07:39:39;;;;;;;6.80;6.15;;;26.10;99.90;;;;;;5138546;28;20222;-82
2023/08/24 07:42:05;;;;;;;7.30;6.50;;;26.20;99.90;;;;;;5105017;27;20541;-80
2023/08/24 07:44:30;;;;;;;7.50;6.60;;;26.30;99.90;;;;;;5115468;28;20228;-80
2023/08/24 07:46:56;;;;;;;7.45;6.85;;;26.30;99.90;;;;;;5114660;28;20231;-79
2023/08/24 07:49:22;;;;;;;7.47;6.75;;;26.40;99.90;;;;;;5114638;28;20165;-81
2023/08/24 07:51:48;;;;;;;7.00;6.32;;;26.50;99.90;;;;;;5114182;28;20166;-80
2023/08/24 07:54:14;;;;;;;6.88;6.38;;;26.50;99.90;;;;;;5105292;28;20158;-81
2023/08/24 07:56:40;;;;;;;7.22;6.63;;;26.60;99.90;;;;;;5114762;28;20649;-78
2023/08/24 07:59:06;;;;;;;7.13;6.60;;;26.60;99.90;;;;;;5113973;28;20184;-80
2023/08/24 08:01:32;;;;;;;6.95;6.35;;;26.70;99.90;;;;;;5113126;28;20521;-84
2023/08/24 08:04:00;;;;;;;7.10;6.40;;;26.70;99.90;;;;;;5114115;28;20639;-83
2023/08/24 08:06:26;;;;;;;7.45;6.75;;;26.80;99.90;;;;;;5115243;28;20733;-83
2023/08/24 08:08:53;;;;;;;7.25;6.72;;;26.80;99.90;;;;;;5119418;28;20673;-84
2023/08/24 08:11:19;;;;;;;7.65;7.05;;;26.90;99.90;;;;;;5085148;28;20236;-83
2023/08/24 08:13:45;;;;;;;7.13;6.55;;;27.00;99.90;;;;;;5094756;28;20180;-83
2023/08/24 08:16:11;;;;;;;7.85;7.22;;;27.00;99.90;;;;;;5094430;28;20182;-83
2023/08/24 08:18:38;;;;;;;8.32;6.60;;;27.10;99.90;;;;;;5088774;28;20525;-84
2023/08/24 08:21:19;;;;;;;6.40;5.90;;;27.10;99.90;;;;;;5111881;28;20240;-82
2023/08/24 08:23:45;;;;;;;6.75;6.15;;;27.20;99.90;;;;;;5094337;28;20181;-82
2023/08/24 08:26:13;;;;;;;6.72;6.13;;;27.10;99.90;;;;;;5093534;28;20202;-82
2023/08/24 08:28:39;;;;;;;8.20;6.82;;;27.20;99.90;;;;;;5093310;28;20205;-83
2023/08/24 08:31:05;;;;;;;6.93;6.45;;;27.20;99.90;;;;;;5093672;28;20174;-82
2023/08/24 08:33:31;;;;;;;7.18;6.47;;;27.30;99.90;;;;;;5093781;28;20181;-82
2023/08/24 08:35:57;;;;;;;7.78;7.13;;;27.30;99.90;;;;;;5094729;28;20253;-83
2023/08/24 08:38:25;;;;;;;7.47;6.80;;;27.40;99.90;;;;;;5093793;28;20634;-83
2023/08/24 08:40:55;;;;;;;6.95;5.90;;;27.50;99.90;;;;;;5092171;28;20193;-81
2023/08/24 08:43:23;;;;;;;7.13;6.18;;;27.60;99.90;;;;;;5092770;28;20228;-82
2023/08/24 08:45:55;;;;;;;7.07;6.47;;;27.50;99.90;;;;;;5093383;28;20232;-84
2023/08/24 08:48:22;;;;;;;6.47;5.97;;;27.60;99.90;;;;;;5075330;28;20189;-83
2023/08/24 08:50:49;;;;;;;7.82;6.70;;;27.60;99.90;;;;;;5092887;28;20564;-82
2023/08/24 08:53:15;;;;;;;9.00;6.88;;;27.60;99.90;;;;;;5092834;28;20266;-80
2023/08/24 08:55:42;;;;;;;6.70;6.22;;;27.70;99.90;;;;;;5093945;28;20182;-79
2023/08/24 08:58:09;;;;;;;7.68;6.60;;;27.70;99.90;;;;;;5093647;28;20174;-81
2023/08/24 09:00:36;;;;;;;7.30;6.07;;;27.80;99.90;;;;;;5081164;28;20187;-80
2023/08/24 09:03:04;;;;;;;7.32;6.57;;;27.80;99.90;;;;;;5106222;28;20178;-79
2023/08/24 09:05:31;;;;;;;7.32;6.63;;;27.90;99.90;;;;;;5099675;28;20186;-80
2023/08/24 09:07:59;;;;;;;6.65;6.15;;;27.90;99.90;;;;;;5095551;28;20213;-83
2023/08/24 09:10:25;;;;;;;6.57;6.07;;;27.90;99.90;;;;;;5095637;28;20170;-82
2023/08/24 09:12:51;;;;;;;7.82;6.80;;;27.90;99.90;;;;;;5095514;28;20178;-84
2023/08/24 09:15:27;;;;;;;6.80;6.13;;;28.00;99.90;;;;;;5109000;28;20202;-82
2023/08/24 09:17:56;;;;;;;6.85;6.25;;;28.00;99.90;;;;;;5097708;28;20170;-80
2023/08/24 09:20:21;;;;;;;8.70;7.57;;;28.00;99.90;;;;;;5095650;28;20175;-80
2023/08/24 09:22:47;;;;;;;6.82;6.32;;;28.00;99.90;;;;;;5071378;28;1206313;-80
2023/08/24 09:25:13;;;;;;;6.30;5.90;;;28.00;99.90;;;;;;5117201;28;20182;-81
2023/08/24 09:27:39;;;;;;;6.68;6.07;;;28.10;99.90;;;;;;5116712;28;20217;-81
2023/08/24 09:30:05;;;;;;;6.30;5.82;;;28.10;99.90;;;;;;5099231;28;20185;-81
2023/08/24 09:32:32;;;;;;;6.13;5.55;;;28.20;99.90;;;;;;5099813;28;20181;-81
2023/08/24 09:35:08;;;;;;;6.43;5.85;;;28.20;99.90;;;;;;5102427;28;20184;-82
2023/08/24 09:37:35;;;;;;;6.10;5.57;;;28.20;99.90;;;;;;5118984;28;20572;-81
2023/08/24 09:40:08;;;;;;;7.95;6.10;;;28.20;99.90;;;;;;5110763;28;20205;-81
2023/08/24 09:42:41;;;;;;;5.63;5.22;;;28.20;99.90;;;;;;5117816;28;20241;-83
2023/08/24 09:45:16;;;;;;;6.57;6.07;;;28.20;99.90;;;;;;5118440;28;20170;-83
2023/08/24 09:47:54;;;;;;;6.38;5.40;;;28.30;99.90;;;;;;5116910;28;20583;-83
2023/08/24 09:50:20;;;;;;;6.05;5.50;;;28.30;99.90;;;;;;5101662;28;20189;-79
2023/08/24 09:52:48;;;;;;;6.18;5.63;;;28.30;99.90;;;;;;5132570;28;20223;-82
2023/08/24 09:55:19;;;;;;;6.40;5.90;;;28.40;99.90;;;;;;5120644;28;20236;-83
2023/08/24 09:57:46;;;;;;;6.38;5.78;;;28.50;99.90;;;;;;5099003;28;20181;-82
2023/08/24 10:00:15;;;;;;;6.20;5.65;;;28.60;99.90;;;;;;5117241;28;20185;-84
2023/08/24 10:02:53;;;;;;;6.57;5.90;;;28.60;99.90;;;;;;5116806;28;20174;-83
2023/08/24 10:05:25;;;;;;;6.47;5.90;;;28.60;99.90;;;;;;5098763;28;20684;-83
2023/08/24 10:07:56;;;;;;;6.80;6.13;;;28.70;99.90;;;;;;5117661;28;20263;-84
2023/08/24 10:10:25;;;;;;;6.97;6.28;;;28.70;99.90;;;;;;5099041;28;20196;-83
2023/08/24 10:12:57;;;;;;;6.07;5.60;;;28.70;99.90;;;;;;5116771;28;20177;-83
2023/08/24 10:15:24;;;;;;;6.38;5.78;;;28.70;99.90;;;;;;5098692;28;20170;-84
2023/08/24 10:17:51;;;;;;;6.88;5.78;;;28.70;99.90;;;;;;5100773;28;20360;-84
2023/08/24 10:20:20;;;;;;;6.00;5.53;;;28.80;99.90;;;;;;5115221;28;20212;-84
2023/08/24 10:22:46;;;;;;;6.28;5.78;;;28.80;99.90;;;;;;5098684;28;20226;-83
2023/08/24 10:25:13;;;;;;;5.75;5.35;;;28.80;99.90;;;;;;5097874;28;20182;-85
2023/08/24 10:27:43;;;;;;;6.25;5.65;;;28.80;99.90;;;;;;5115734;28;20218;-83
2023/08/24 10:30:12;;;;;;;6.53;5.82;;;28.80;99.90;;;;;;5115789;28;20243;-82
2023/08/24 10:32:39;;;;;;;6.50;5.90;;;28.90;99.90;;;;;;5098246;28;20710;-82
2023/08/24 10:35:05;;;;;;;6.60;6.07;;;28.90;99.90;;;;;;5115568;28;20178;-83
2023/08/24 10:37:34;;;;;;;5.70;5.20;;;29.00;99.90;;;;;;5118480;28;20273;-81
2023/08/24 10:40:00;;;;;;;5.80;5.40;;;29.10;99.90;;;;;;5119126;28;20208;-83
2023/08/24 10:42:26;;;;;;;7.85;6.03;;;29.10;99.90;;;;;;5106873;28;20192;-83
2023/08/24 10:44:53;;;;;;;5.97;5.40;;;29.20;99.90;;;;;;5101165;28;20181;-83
2023/08/24 10:47:23;;;;;;;5.50;5.05;;;29.20;99.90;;;;;;5118754;28;20681;-83
2023/08/24 10:49:55;;;;;;;6.35;5.20;;;29.30;99.90;;;;;;5101037;28;20190;-83
2023/08/24 10:52:36;;;;;;;5.97;5.50;;;29.20;99.90;;;;;;5107182;28;20186;-82
2023/08/24 10:55:04;;;;;;;6.15;5.57;;;27.90;99.90;;;;;;5120014;28;20184;-83
2023/08/24 10:57:41;;;;;;;6.35;5.78;;;29.30;99.90;;;;;;5133495;28;20173;-83
2023/08/24 11:00:12;;;;;;;5.85;5.35;;;29.40;99.90;;;;;;5112638;28;20193;-81
2023/08/24 11:02:45;;;;;;;5.57;5.07;;;29.40;99.90;;;;;;5129835;27;20174;-82
2023/08/24 11:05:29;;;;;;;5.63;5.15;;;29.40;99.90;;;;;;5133278;28;20216;-82
2023/08/24 11:08:06;;;;;;;5.20;4.90;;;29.50;99.90;;;;;;5132292;27;20233;-83
2023/08/24 11:10:46;;;;;;;5.45;4.90;;;29.50;99.90;;;;;;5112418;28;20181;-83
2023/08/24 11:13:13;;;;;;;5.60;5.18;;;29.60;99.90;;;;;;5135454;27;20158;-82
2023/08/24 11:15:44;;;;;;;6.05;5.55;;;29.60;99.90;;;;;;5132235;27;20237;-83
2023/08/24 11:18:24;;;;;;;6.00;5.57;;;29.60;99.90;;;;;;5138370;28;20181;-83
2023/08/24 11:21:01;;;;;;;6.03;5.43;;;29.60;99.90;;;;;;5133351;28;20231;-83
2023/08/24 11:23:28;;;;;;;6.43;5.85;;;29.60;99.90;;;;;;5135807;28;20169;-83
2023/08/24 11:25:59;;;;;;;6.18;5.38;;;29.60;99.90;;;;;;5139239;28;20169;-85
2023/08/24 11:28:27;;;;;;;6.32;5.72;;;29.70;99.90;;;;;;5130815;28;20212;-83
2023/08/24 11:30:53;;;;;;;6.63;6.13;;;29.80;99.90;;;;;;5127372;28;20205;-83
2023/08/24 11:33:33;;;;;;;5.93;5.43;;;29.90;99.90;;;;;;5122440;28;20166;-85
2023/08/24 11:36:00;;;;;;;6.32;5.70;;;29.80;99.90;;;;;;5118198;28;20158;-83
2023/08/24 11:38:42;;;;;;;6.03;5.43;;;29.70;99.90;;;;;;5116668;28;20174;-83
2023/08/24 11:41:26;;;;;;;5.78;5.38;;;29.60;99.90;;;;;;5118532;28;20194;-83
2023/08/24 11:44:00;;;;;;;6.15;5.55;;;29.60;99.90;;;;;;5097315;28;20653;-82
2023/08/24 11:46:29;;;;;;;5.72;5.32;;;29.70;99.90;;;;;;5118715;28;20580;-84
2023/08/24 11:48:56;;;;;;;6.13;5.57;;;29.70;99.90;;;;;;5115492;28;20252;-84
2023/08/24 11:51:22;;;;;;;6.68;6.03;;;29.70;99.90;;;;;;5097527;28;20212;-83
2023/08/24 11:53:48;;;;;;;6.25;5.38;;;29.70;99.90;;;;;;5097225;28;20179;-85
2023/08/24 11:56:16;;;;;;;6.40;5.80;;;29.80;99.90;;;;;;5115281;28;20253;-86
2023/08/24 11:58:47;;;;;;;7.28;6.32;;;29.90;99.90;;;;;;5115267;28;20185;-84
2023/08/24 12:01:13;;;;;;;6.15;5.60;;;29.80;99.90;;;;;;5114391;28;20626;-83
2023/08/24 12:03:39;;;;;;;6.72;6.10;;;29.80;99.90;;;;;;5113508;28;20186;-85
2023/08/24 12:06:15;;;;;;;7.05;5.78;;;29.80;99.90;;;;;;5114742;28;20173;-84
2023/08/24 12:08:43;;;;;;;6.53;5.93;;;29.80;99.90;;;;;;5114580;28;20185;-84
2023/08/24 12:11:25;;;;;;;7.00;6.30;;;29.90;99.90;;;;;;5114591;28;20180;-84
2023/08/24 12:13:55;;;;;;;6.63;5.88;;;29.90;99.90;;;;;;5096639;28;20188;-86
2023/08/24 12:16:22;;;;;;;6.60;5.97;;;29.90;99.90;;;;;;5111898;28;20170;-83
2023/08/24 12:18:55;;;;;;;8.43;6.40;;;30.00;99.90;;;;;;5121233;28;20170;-84
2023/08/24 12:21:22;;;;;;;7.50;6.38;;;30.00;99.90;;;;;;5094612;28;20313;-85
2023/08/24 12:24:05;;;;;;;7.47;6.80;;;30.10;99.90;;;;;;5112735;28;20179;-85
2023/08/24 12:26:32;;;;;;;6.68;6.15;;;30.20;99.90;;;;;;5097097;28;20237;-84
2023/08/24 12:29:06;;;;;;;6.95;6.35;;;30.20;99.90;;;;;;5097958;28;20195;-83
2023/08/24 12:31:33;;;;;;;7.32;6.78;;;30.30;99.90;;;;;;5126117;28;20748;-83
2023/08/24 12:34:04;;;;;;;8.55;6.53;;;30.20;99.90;;;;;;5117185;28;20166;-83
2023/08/24 12:36:32;;;;;;;6.88;6.32;;;30.30;99.90;;;;;;5107086;28;20178;-85
2023/08/24 12:38:59;;;;;;;7.53;6.82;;;30.30;99.90;;;;;;5098916;28;20210;-84
2023/08/24 12:41:25;;;;;;;7.70;6.30;;;30.30;99.90;;;;;;5097710;28;20190;-82
2023/08/24 12:43:52;;;;;;;7.03;6.53;;;30.20;99.90;;;;;;5095637;28;20189;-82
2023/08/24 12:46:18;;;;;;;7.22;6.63;;;30.20;99.90;;;;;;5097667;28;20202;-82
2023/08/24 12:48:44;;;;;;;7.10;6.55;;;30.20;99.90;;;;;;5097427;28;20178;-81